Time;durP1;ratioP1;P1;durP2;ratioP2;P2;SDS_P1;SDS_P2;PMS_P1;PMS_P2;Temp;Humidity;BMP_temperature;BMP_pressure;BME280_temperature;BME280_humidity;BME280_pressure;Samples;Min_cycle;Max_cycle;Signal;HPM_P1;HPM_P2
2023/03/25 08:14:40;;;;;;;9.35;1.45;;;;;;;10.34;94.68;99655.06;6183443;22;20044;-72
2023/03/25 08:17:06;;;;;;;3.28;1.00;;;;;;;10.29;93.73;99657.44;6239857;23;20028;-73
2023/03/25 08:19:33;;;;;;;3.65;0.80;;;;;;;9.90;99.78;99655.00;6239914;23;20457;-72
2023/03/25 08:22:00;;;;;;;4.47;0.95;;;;;;;9.89;100.00;99648.81;6228521;23;20023;-73
2023/03/25 08:24:28;;;;;;;3.63;0.80;;;;;;;9.49;100.00;99650.81;6240737;23;20026;-73
2023/03/25 08:26:55;;;;;;;5.80;1.20;;;;;;;10.15;100.00;99644.88;6237911;23;20043;-71
2023/03/25 08:29:23;;;;;;;6.47;1.38;;;;;;;10.17;98.09;99641.00;6237672;22;20465;-72
2023/03/25 08:31:51;;;;;;;3.78;1.08;;;;;;;9.81;100.00;99648.88;6247874;23;20024;-69
2023/03/25 08:34:20;;;;;;;4.78;1.13;;;;;;;9.40;100.00;99646.53;6258622;23;20032;-71
2023/03/25 08:36:46;;;;;;;8.70;1.38;;;;;;;9.28;100.00;99645.28;6260624;23;20024;-70
2023/03/25 08:39:16;;;;;;;2.28;0.88;;;;;;;9.25;100.00;99645.66;6260675;23;20020;-71
2023/03/25 08:41:44;;;;;;;4.75;0.80;;;;;;;9.11;100.00;99643.72;6260125;23;20028;-70
2023/03/25 08:44:10;;;;;;;5.22;1.10;;;;;;;9.20;100.00;99648.84;6260186;23;20039;-69
2023/03/25 08:46:37;;;;;;;2.03;0.80;;;;;;;9.08;100.00;99643.03;6261320;23;20087;-70
2023/03/25 08:49:05;;;;;;;3.65;0.77;;;;;;;9.46;100.00;99651.16;6259757;23;20051;-70
2023/03/25 08:51:31;;;;;;;4.05;1.15;;;;;;;9.25;100.00;99634.94;6261899;23;20028;-69
2023/03/25 08:53:59;;;;;;;5.55;2.03;;;;;;;8.91;100.00;99637.97;6245833;23;20020;-71
2023/03/25 08:56:26;;;;;;;3.13;0.88;;;;;;;9.03;100.00;99642.75;6238597;23;20036;-70
2023/03/25 08:58:52;;;;;;;3.45;1.00;;;;;;;9.32;100.00;99635.88;6260451;23;20047;-70
2023/03/25 09:01:20;;;;;;;3.95;0.90;;;;;;;9.26;100.00;99658.84;6262576;23;20123;-71
2023/03/25 09:03:47;;;;;;;3.88;0.90;;;;;;;8.55;100.00;99642.00;6262423;23;20024;-71
2023/03/25 09:06:14;;;;;;;4.65;1.20;;;;;;;8.43;100.00;99654.03;6261323;23;20337;-70
2023/03/25 09:08:40;;;;;;;4.75;0.77;;;;;;;8.63;100.00;99648.31;6237100;23;20102;-71
2023/03/25 09:11:07;;;;;;;4.20;0.93;;;;;;;8.50;100.00;99651.53;6266138;23;20028;-69
2023/03/25 09:13:34;;;;;;;5.20;1.00;;;;;;;8.49;100.00;99647.19;6253612;23;20031;-70
2023/03/25 09:16:00;;;;;;;1.63;0.95;;;;;;;8.59;100.00;99651.31;6265095;23;20012;-70
2023/03/25 09:18:27;;;;;;;3.90;0.85;;;;;;;8.61;100.00;99645.81;6266200;23;20024;-69
2023/03/25 09:20:58;;;;;;;5.18;1.40;;;;;;;8.55;100.00;99647.34;6260240;23;20083;-71
2023/03/25 09:23:25;;;;;;;5.28;0.82;;;;;;;8.94;100.00;99651.00;6265844;23;20012;-70
2023/03/25 09:25:51;;;;;;;3.42;0.75;;;;;;;9.01;100.00;99644.75;6264579;23;20024;-71
2023/03/25 09:28:18;;;;;;;8.45;1.30;;;;;;;8.48;100.00;99650.88;6267564;22;20023;-70
2023/03/25 09:30:45;;;;;;;5.63;1.05;;;;;;;8.30;100.00;99656.44;6269337;23;20012;-70
2023/03/25 09:33:11;;;;;;;2.83;0.77;;;;;;;8.32;100.00;99662.44;6268324;22;20024;-69
2023/03/25 09:35:40;;;;;;;2.58;0.68;;;;;;;8.30;100.00;99656.44;6268528;23;20012;-72
2023/03/25 09:38:06;;;;;;;2.05;0.70;;;;;;;8.34;100.00;99658.59;6266310;23;20019;-71
2023/03/25 09:40:34;;;;;;;2.95;1.00;;;;;;;8.65;100.00;99659.66;6268724;23;20058;-69
2023/03/25 09:43:20;;;;;;;3.28;1.00;;;;;;;9.33;93.61;99653.59;6268161;22;20020;-71
2023/03/25 09:45:48;;;;;;;6.72;0.98;;;;;;;10.45;80.10;99664.47;6269696;23;20012;-71
2023/03/25 09:48:26;;;;;;;5.00;0.80;;;;;;;11.56;72.14;99668.69;6268265;23;20060;-71
2023/03/25 09:50:52;;;;;;;5.85;1.13;;;;;;;11.93;67.23;99659.53;6268261;23;20012;-71
2023/03/25 09:53:28;;;;;;;3.88;1.13;;;;;;;11.59;66.01;99652.19;6263080;23;20103;-70
2023/03/25 09:55:55;;;;;;;4.57;1.30;;;;;;;11.15;66.40;99652.38;6265480;23;20008;-72
2023/03/25 09:58:27;;;;;;;6.40;0.80;;;;;;;10.40;69.00;99659.66;6265229;23;20020;-72
2023/03/25 10:01:06;;;;;;;4.68;1.00;;;;;;;10.09;71.11;99659.81;6262479;23;20007;-71
2023/03/25 10:03:54;;;;;;;3.03;0.73;;;;;;;9.65;74.33;99662.44;6255252;23;20012;-70
2023/03/25 10:06:25;;;;;;;3.85;0.85;;;;;;;9.60;73.47;99662.94;6264376;23;20047;-71
2023/03/25 10:09:22;;;;;;;4.90;1.05;;;;;;;9.19;75.69;99670.41;6266835;23;20008;-71
2023/03/25 10:12:16;;;;;;;1.95;0.75;;;;;;;8.91;76.27;99654.84;6254414;23;20008;-70
2023/03/25 10:15:13;;;;;;;4.78;0.88;;;;;;;9.01;76.93;99644.75;6264278;23;20040;-71
2023/03/25 10:17:58;;;;;;;7.13;1.42;;;;;;;10.15;72.97;99647.53;6265154;23;20035;-70
2023/03/25 10:20:58;;;;;;;2.53;0.93;;;;;;;11.49;65.72;99650.84;6263332;23;20051;-71
2023/03/25 10:23:35;;;;;;;3.42;0.63;;;;;;;12.79;59.88;99648.47;6249840;23;20032;-73
2023/03/25 10:26:26;;;;;;;3.13;0.80;;;;;;;13.54;56.57;99646.59;6238641;23;20012;-73
2023/03/25 10:29:15;;;;;;;2.40;0.90;;;;;;;12.47;58.32;99641.88;6241860;22;20322;-72
2023/03/25 10:31:51;;;;;;;1.95;0.90;;;;;;;12.96;57.68;99645.41;6241390;23;20024;-72
2023/03/25 10:34:22;;;;;;;3.97;0.70;;;;;;;12.46;57.69;99642.91;6242467;23;20028;-72
2023/03/25 10:36:59;;;;;;;4.82;1.00;;;;;;;12.45;58.52;99648.47;6241071;23;20024;-72
2023/03/25 10:39:32;;;;;;;5.18;1.08;;;;;;;12.93;56.47;99637.75;6240669;23;20023;-73
2023/03/25 10:42:11;;;;;;;2.25;0.80;;;;;;;13.00;55.77;99639.41;6240484;23;20027;-73
2023/03/25 10:44:37;;;;;;;3.80;0.90;;;;;;;11.71;59.30;99636.41;6240419;23;20356;-74
2023/03/25 10:47:14;;;;;;;3.78;0.80;;;;;;;11.33;59.70;99642.00;6240989;23;20046;-73
2023/03/25 10:49:43;;;;;;;5.72;1.85;;;;;;;11.98;58.48;99629.38;6242590;23;20031;-73
2023/03/25 10:52:10;;;;;;;7.13;1.30;;;;;;;11.60;60.02;99634.22;6241654;23;20040;-75
2023/03/25 10:54:41;;;;;;;4.82;0.90;;;;;;;12.56;56.74;99638.00;6241312;23;20020;-72
2023/03/25 10:57:16;;;;;;;6.82;1.00;;;;;;;12.51;56.35;99634.22;6240914;23;20016;-73
2023/03/25 11:00:16;;;;;;;3.05;0.80;;;;;;;12.70;56.02;99628.13;6230906;23;20103;-73
2023/03/25 11:02:43;;;;;;;5.80;0.70;;;;;;;11.61;56.87;99622.44;6240435;23;20408;-72
2023/03/25 11:05:15;;;;;;;6.07;1.10;;;;;;;11.34;59.92;99622.19;6240824;23;20400;-71
2023/03/25 11:07:52;;;;;;;4.28;0.80;;;;;;;11.22;61.15;99632.59;6228489;23;20374;-75
2023/03/25 11:10:28;;;;;;;6.88;1.00;;;;;;;10.57;65.34;99624.63;6241266;23;20026;-74
2023/03/25 11:12:57;;;;;;;5.28;1.08;;;;;;;11.46;63.64;99617.13;6213146;23;20418;-73
2023/03/25 11:15:39;;;;;;;4.45;0.80;;;;;;;11.92;60.76;99606.78;6228890;23;20047;-72
2023/03/25 11:18:30;;;;;;;4.22;0.80;;;;;;;11.13;63.00;99616.81;6240792;23;20030;-73
2023/03/25 11:21:03;;;;;;;2.50;0.60;;;;;;;10.56;66.08;99631.03;6239055;23;20016;-71
2023/03/25 11:23:31;;;;;;;4.93;0.70;;;;;;;10.36;67.44;99620.00;6239411;23;20104;-71
2023/03/25 11:26:05;;;;;;;1.45;0.70;;;;;;;10.73;65.53;99613.69;6237194;23;20020;-72
2023/03/25 11:28:38;;;;;;;2.92;0.90;;;;;;;10.54;65.99;99615.09;6239316;22;20028;-72
2023/03/25 11:31:19;;;;;;;5.57;0.82;;;;;;;10.25;65.86;99615.94;6239452;23;20048;-72
2023/03/25 11:34:11;;;;;;;8.13;1.67;;;;;;;10.12;66.96;99605.03;6239892;23;20024;-71
2023/03/25 11:36:58;;;;;;;3.13;1.10;;;;;;;9.99;68.63;99605.66;6239486;23;20024;-73
2023/03/25 11:39:47;;;;;;;4.32;1.30;;;;;;;9.69;71.66;99624.38;6237914;23;20050;-73
2023/03/25 11:42:21;;;;;;;3.65;0.90;;;;;;;9.50;74.65;99601.59;6238107;23;20024;-72
2023/03/25 11:44:52;;;;;;;2.90;0.70;;;;;;;8.85;91.75;99602.06;6239101;23;20406;-71
2023/03/25 11:47:24;;;;;;;2.42;0.70;;;;;;;9.58;100.00;99608.75;6239298;23;20091;-72
2023/03/25 11:49:52;;;;;;;3.22;1.20;;;;;;;10.36;96.77;99604.75;6219033;23;20042;-72
2023/03/25 11:52:23;;;;;;;1.48;0.68;;;;;;;10.75;86.02;99603.59;6219295;23;20024;-72
2023/03/25 11:54:53;;;;;;;4.03;0.83;;;;;;;10.60;87.94;99587.53;6238164;23;20020;-71
2023/03/25 11:57:26;;;;;;;4.22;0.95;;;;;;;10.38;90.85;99594.69;6241229;23;20062;-72
2023/03/25 12:00:40;;;;;;;3.83;0.98;;;;;;;9.82;91.71;99588.94;6236257;23;20024;-72
2023/03/25 12:03:13;;;;;;;2.10;0.80;;;;;;;10.03;91.53;99583.69;6086669;23;20050;-72
2023/03/25 12:05:41;;;;;;;3.90;0.80;;;;;;;10.60;82.90;99573.31;6087380;23;20264;-72
2023/03/25 12:08:14;;;;;;;3.20;0.90;;;;;;;11.17;75.98;99588.56;6087582;23;20121;-72
2023/03/25 12:11:06;;;;;;;7.43;1.20;;;;;;;11.77;68.82;99579.19;6089013;23;20027;-73
2023/03/25 12:14:04;;;;;;;5.32;0.98;;;;;;;12.27;64.74;99587.13;6075851;23;20089;-72
2023/03/25 12:16:54;;;;;;;3.05;0.88;;;;;;;12.87;59.93;99582.88;6088748;23;20100;-73
2023/03/25 12:19:54;;;;;;;3.05;0.90;;;;;;;12.08;60.33;99588.69;6077209;23;20036;-72
2023/03/25 12:22:30;;;;;;;2.33;0.50;;;;;;;11.52;62.39;99580.59;6089486;23;20030;-73
2023/03/25 12:25:37;;;;;;;4.68;0.95;;;;;;;10.90;63.39;99577.56;6089551;23;20026;-71
2023/03/25 12:28:35;;;;;;;1.80;0.57;;;;;;;11.02;63.96;99560.97;6086136;23;20093;-73
2023/03/25 12:31:29;;;;;;;2.55;0.98;;;;;;;10.70;64.53;99563.13;6088450;23;20408;-72
2023/03/25 12:34:09;;;;;;;3.30;0.55;;;;;;;10.27;67.16;99571.03;6087491;23;20022;-72
2023/03/25 12:36:42;;;;;;;3.47;0.65;;;;;;;10.85;65.82;99568.41;6126935;23;20025;-73
2023/03/25 12:39:08;;;;;;;1.73;0.57;;;;;;;11.72;64.61;99560.13;6210798;23;20092;-72
2023/03/25 12:42:12;;;;;;;3.13;0.70;;;;;;;11.69;61.17;99556.00;6209496;23;20096;-71
2023/03/25 12:45:05;;;;;;;6.05;1.10;;;;;;;13.64;55.38;99562.63;6211331;23;20016;-71
2023/03/25 12:47:42;;;;;;;2.17;0.80;;;;;;;12.66;57.21;99554.22;6210884;23;20021;-71
2023/03/25 12:50:44;;;;;;;2.10;0.95;;;;;;;12.43;58.90;99545.66;6213234;23;20020;-71
2023/03/25 12:53:39;;;;;;;2.15;0.70;;;;;;;12.44;56.71;99547.28;6212852;23;20354;-71
2023/03/25 12:56:51;;;;;;;7.78;0.90;;;;;;;11.95;59.99;99537.53;6203282;23;20045;-74
2023/03/25 12:59:31;;;;;;;;;;;;;;;10.96;62.17;99535.72;6219795;23;20023;-73
2023/03/25 13:02:26;;;;;;;3.67;1.38;;;;;;;10.85;64.58;99539.72;6226905;23;19934;-74
2023/03/25 13:05:11;;;;;;;6.07;1.42;;;;;;;10.38;73.13;99541.06;6224383;23;20021;-74
2023/03/25 13:07:42;;;;;;;2.55;0.73;;;;;;;9.90;89.29;99537.94;6212611;23;20131;-72
2023/03/25 13:10:15;;;;;;;5.55;0.93;;;;;;;9.69;91.65;99551.25;6206274;23;20028;-72
2023/03/25 13:12:54;;;;;;;3.03;0.80;;;;;;;8.99;100.00;99550.50;6212953;23;20031;-72
2023/03/25 13:15:24;;;;;;;2.50;0.73;;;;;;;8.35;100.00;99574.75;6233783;23;20021;-74
2023/03/25 13:18:11;;;;;;;6.78;2.00;;;;;;;8.32;100.00;99571.59;6253979;23;20024;-74
2023/03/25 13:21:12;;;;;;;6.65;1.15;;;;;;;8.54;100.00;99562.81;6252255;23;20029;-72
2023/03/25 13:23:42;;;;;;;5.07;1.30;;;;;;;8.65;100.00;99556.22;6244654;23;20305;-72
2023/03/25 13:26:13;;;;;;;3.03;1.00;;;;;;;8.44;100.00;99572.88;6255607;23;20043;-73
2023/03/25 13:28:49;;;;;;;3.97;1.10;;;;;;;8.31;100.00;99593.97;6252380;22;20039;-73
2023/03/25 13:31:26;;;;;;;10.77;1.40;;;;;;;7.88;100.00;99593.44;6254615;23;20024;-73
2023/03/25 13:34:15;;;;;;;7.70;0.70;;;;;;;7.35;100.00;99570.78;6265039;23;20012;-73
2023/03/25 13:36:50;;;;;;;2.97;0.95;;;;;;;7.19;100.00;99577.78;6266314;23;20035;-72
2023/03/25 13:39:30;;;;;;;2.05;0.77;;;;;;;7.41;100.00;99575.47;6232624;23;20051;-74
2023/03/25 13:42:11;;;;;;;3.60;1.10;;;;;;;7.39;100.00;99577.44;6248839;23;20022;-73
2023/03/25 13:44:40;;;;;;;2.00;0.90;;;;;;;7.49;100.00;99587.94;6249793;23;20080;-73
2023/03/25 13:47:17;;;;;;;1.95;0.80;;;;;;;7.38;100.00;99594.47;6246659;23;20016;-72
2023/03/25 13:49:54;;;;;;;4.35;1.45;;;;;;;7.33;100.00;99583.47;6250540;23;20024;-72
2023/03/25 13:52:25;;;;;;;1.58;0.60;;;;;;;6.98;100.00;99585.44;6248587;23;20020;-72
2023/03/25 13:55:05;;;;;;;1.40;0.70;;;;;;;6.98;100.00;99590.78;6248549;23;20073;-74
2023/03/25 13:57:59;;;;;;;4.60;0.73;;;;;;;7.06;100.00;99582.78;6224032;23;20456;-73
2023/03/25 14:00:54;;;;;;;2.13;0.88;;;;;;;7.16;100.00;99587.97;6249750;23;20107;-73
2023/03/25 14:03:48;;;;;;;1.33;0.47;;;;;;;7.23;100.00;99593.47;6250532;23;20357;-73
2023/03/25 14:06:36;;;;;;;2.25;1.00;;;;;;;7.13;100.00;99590.97;6251485;23;20054;-74
2023/03/25 14:09:31;;;;;;;3.13;1.13;;;;;;;7.29;100.00;99592.78;6251489;23;20020;-74
2023/03/25 14:12:08;;;;;;;2.60;0.50;;;;;;;7.29;100.00;99590.13;6250098;23;20749;-73
2023/03/25 14:14:40;;;;;;;2.10;0.57;;;;;;;7.41;100.00;99588.78;6235014;23;20040;-73
2023/03/25 14:17:09;;;;;;;1.45;0.70;;;;;;;7.45;100.00;99576.78;6249347;23;20106;-75
2023/03/25 14:19:38;;;;;;;5.40;0.80;;;;;;;7.54;100.00;99578.44;6251178;23;20482;-74
2023/03/25 14:22:22;;;;;;;1.65;0.68;;;;;;;7.36;100.00;99572.44;6250488;23;20026;-73
2023/03/25 14:24:50;;;;;;;3.70;0.80;;;;;;;7.41;100.00;99581.63;6252507;23;20099;-73
2023/03/25 14:27:24;;;;;;;2.65;0.70;;;;;;;7.64;100.00;99570.28;6253453;23;20334;-74
2023/03/25 14:29:57;;;;;;;2.22;0.95;;;;;;;7.75;100.00;99575.25;6252712;23;20016;-74
2023/03/25 14:32:33;;;;;;;3.97;1.13;;;;;;;7.71;100.00;99570.41;6252556;23;20456;-73
2023/03/25 14:35:35;;;;;;;1.60;0.73;;;;;;;7.81;100.00;99568.38;6250710;23;20019;-74
2023/03/25 14:38:04;;;;;;;1.92;0.93;;;;;;;7.88;100.00;99545.34;6250268;23;20055;-75
2023/03/25 14:40:45;;;;;;;1.35;0.70;;;;;;;7.73;100.00;99553.22;6255816;23;20078;-75
2023/03/25 14:43:44;;;;;;;3.28;0.95;;;;;;;7.95;100.00;99551.72;6258854;23;20099;-75
2023/03/25 14:46:12;;;;;;;7.18;1.38;;;;;;;8.04;100.00;99542.63;6250732;23;20032;-75
2023/03/25 14:48:51;;;;;;;2.65;0.90;;;;;;;8.00;100.00;99552.00;6251744;23;20028;-74
2023/03/25 14:51:26;;;;;;;3.30;0.85;;;;;;;8.05;100.00;99546.13;6252352;23;20044;-74
2023/03/25 14:54:00;;;;;;;4.65;1.10;;;;;;;7.81;100.00;99544.34;6254601;23;20008;-75
2023/03/25 14:56:36;;;;;;;2.58;0.90;;;;;;;7.76;100.00;99541.38;6255015;23;20024;-74
2023/03/25 14:59:16;;;;;;;2.85;0.88;;;;;;;7.73;100.00;99536.38;6253159;23;20016;-74
2023/03/25 15:01:45;;;;;;;3.45;0.90;;;;;;;7.59;100.00;99536.06;6249090;23;20020;-73
2023/03/25 15:04:25;;;;;;;2.42;1.00;;;;;;;7.41;100.00;99535.44;6249685;23;20072;-74
2023/03/25 15:06:52;;;;;;;3.13;1.00;;;;;;;7.36;100.00;99527.94;6248655;23;20016;-74
2023/03/25 15:09:21;;;;;;;2.78;1.30;;;;;;;7.42;100.00;99537.09;6250579;23;20063;-73
2023/03/25 15:11:56;;;;;;;3.22;1.10;;;;;;;7.46;100.00;99532.25;6251381;23;20020;-73
2023/03/25 15:14:30;;;;;;;3.60;1.20;;;;;;;7.49;100.00;99535.41;6249681;23;20094;-73
2023/03/25 15:17:05;;;;;;;4.72;0.93;;;;;;;7.39;100.00;99530.25;6248642;23;20023;-75
2023/03/25 15:19:57;;;;;;;2.17;0.98;;;;;;;7.46;100.00;99529.56;6250094;23;20027;-73
2023/03/25 15:22:23;;;;;;;2.42;0.85;;;;;;;7.53;100.00;99525.22;6247742;23;20099;-73
2023/03/25 15:24:56;;;;;;;2.45;0.80;;;;;;;7.49;100.00;99530.06;6248199;23;20044;-73
2023/03/25 15:27:48;;;;;;;2.67;0.88;;;;;;;7.38;100.00;99517.91;6250173;22;20024;-75
2023/03/25 15:30:24;;;;;;;3.45;1.00;;;;;;;7.42;100.00;99513.91;6248472;23;20092;-74
2023/03/25 15:32:59;;;;;;;3.85;0.77;;;;;;;7.44;100.00;99511.09;6251979;23;20026;-74
2023/03/25 15:35:42;;;;;;;3.67;1.08;;;;;;;7.44;100.00;99511.09;6252737;23;20026;-75
2023/03/25 15:38:45;;;;;;;2.08;0.95;;;;;;;7.51;100.00;99520.06;6253495;23;20023;-74
2023/03/25 15:41:19;;;;;;;1.90;1.10;;;;;;;7.46;100.00;99525.06;6251738;23;20444;-75
2023/03/25 15:44:17;;;;;;;3.10;1.27;;;;;;;7.52;100.00;99515.56;6253214;23;20054;-74
2023/03/25 15:47:10;;;;;;;3.33;1.40;;;;;;;7.46;100.00;99517.06;6252353;23;20024;-75
2023/03/25 15:50:04;;;;;;;7.80;1.60;;;;;;;7.40;100.00;99521.25;6250758;23;20076;-75
2023/03/25 15:52:47;;;;;;;2.42;1.00;;;;;;;7.28;100.00;99519.94;6253777;23;20024;-74
2023/03/25 15:55:18;;;;;;;4.35;1.35;;;;;;;7.28;100.00;99516.44;6253451;23;20103;-74
2023/03/25 15:57:48;;;;;;;4.28;1.20;;;;;;;7.27;100.00;99510.28;6254125;23;20023;-74
2023/03/25 16:00:30;;;;;;;5.97;1.33;;;;;;;7.24;100.00;99513.28;6254034;23;20035;-74
2023/03/25 16:03:13;;;;;;;8.82;1.70;;;;;;;7.23;100.00;99518.78;6253677;23;20028;-75
2023/03/25 16:05:48;;;;;;;4.20;1.00;;;;;;;7.28;100.00;99519.09;6252706;23;20115;-74
2023/03/25 16:08:35;;;;;;;3.22;1.05;;;;;;;7.29;100.00;99526.09;6253505;23;20046;-73
2023/03/25 16:11:30;;;;;;;3.30;1.20;;;;;;;7.38;100.00;99543.78;6253057;23;20039;-73
2023/03/25 16:14:15;;;;;;;2.08;0.85;;;;;;;7.38;100.00;99554.44;6218516;23;20118;-75
2023/03/25 16:16:46;;;;;;;5.43;1.52;;;;;;;7.37;100.00;99564.28;6223474;23;20050;-74
2023/03/25 16:19:20;;;;;;;3.47;1.73;;;;;;;7.03;100.00;99579.63;6247636;23;20020;-74
2023/03/25 16:21:48;;;;;;;5.50;1.40;;;;;;;6.85;100.00;99588.59;6244870;23;20039;-74
2023/03/25 16:24:19;;;;;;;4.28;1.48;;;;;;;6.78;100.00;99598.25;6243691;23;20457;-71
2023/03/25 16:26:47;;;;;;;7.07;2.22;;;;;;;6.60;100.00;99587.72;6254592;23;20027;-70
2023/03/25 16:29:19;;;;;;;5.05;1.42;;;;;;;6.70;100.00;99571.56;6257112;22;20020;-71
2023/03/25 16:31:53;;;;;;;6.30;1.55;;;;;;;6.62;100.00;99574.22;6260234;23;20084;-71
2023/03/25 16:34:21;;;;;;;7.68;1.60;;;;;;;6.75;100.00;99569.25;6260457;23;20028;-71
2023/03/25 16:36:50;;;;;;;5.65;1.58;;;;;;;6.70;100.00;99561.75;6258984;23;20076;-70
2023/03/25 16:39:18;;;;;;;6.05;1.92;;;;;;;6.63;100.00;99558.06;6259716;23;20027;-70
2023/03/25 16:41:46;;;;;;;4.95;1.55;;;;;;;6.62;100.00;99552.88;6258676;23;20341;-70
2023/03/25 16:44:16;;;;;;;4.10;1.77;;;;;;;6.56;100.00;99559.69;6257919;23;20051;-71
2023/03/25 16:46:44;;;;;;;2.45;1.15;;;;;;;6.53;100.00;99543.19;6259026;23;20325;-72
2023/03/25 16:49:25;;;;;;;6.57;1.90;;;;;;;6.59;100.00;99555.88;6259290;23;20129;-71
2023/03/25 16:51:52;;;;;;;6.88;2.13;;;;;;;6.50;100.00;99557.69;6258832;23;20043;-72
2023/03/25 16:54:26;;;;;;;10.10;4.43;;;;;;;6.48;100.00;99562.34;6256362;23;20051;-71
2023/03/25 16:56:53;;;;;;;6.78;2.80;;;;;;;6.50;100.00;99562.19;6253908;23;20020;-71
2023/03/25 16:59:26;;;;;;;8.48;2.90;;;;;;;6.38;100.00;99561.66;6246503;23;20057;-70
2023/03/25 17:01:56;;;;;;;8.75;3.85;;;;;;;6.45;100.00;99560.00;6253142;23;20020;-71
2023/03/25 17:04:25;;;;;;;13.13;3.53;;;;;;;6.31;100.00;99560.63;6253045;23;20020;-70
2023/03/25 17:06:58;;;;;;;6.65;2.35;;;;;;;6.44;100.00;99553.84;6253168;23;20050;-71
2023/03/25 17:09:32;;;;;;;7.80;2.35;;;;;;;6.37;100.00;99557.31;6251262;23;20078;-70
2023/03/25 17:12:01;;;;;;;5.18;2.72;;;;;;;6.43;100.00;99564.66;6253101;23;20025;-70
2023/03/25 17:14:35;;;;;;;5.38;2.67;;;;;;;6.41;100.00;99550.66;6252396;23;20033;-71
2023/03/25 17:17:23;;;;;;;5.57;1.92;;;;;;;6.43;100.00;99583.31;6252110;23;20024;-70
2023/03/25 17:19:51;;;;;;;8.32;3.33;;;;;;;6.50;100.00;99594.16;6251763;23;20024;-70
2023/03/25 17:22:32;;;;;;;7.22;2.85;;;;;;;6.61;100.00;99591.19;6255081;23;20031;-70
2023/03/25 17:25:46;;;;;;;10.30;2.58;;;;;;;6.59;100.00;99591.34;6260924;23;20075;-70
2023/03/25 17:28:51;;;;;;;8.00;2.20;;;;;;;6.51;100.00;99588.66;6196719;22;20020;-71
2023/03/25 17:31:17;;;;;;;6.07;2.38;;;;;;;6.37;100.00;99582.13;6265651;23;20020;-71
2023/03/25 17:33:52;;;;;;;7.00;2.45;;;;;;;6.36;100.00;99591.13;6265265;23;20024;-72
2023/03/25 17:36:20;;;;;;;8.95;2.65;;;;;;;6.35;100.00;99581.44;6266396;23;20036;-70
2023/03/25 17:38:49;;;;;;;6.57;2.83;;;;;;;6.34;100.00;99586.94;6265688;23;20068;-71
2023/03/25 17:41:17;;;;;;;7.07;2.88;;;;;;;6.43;100.00;99588.66;6265417;23;20031;-71
2023/03/25 17:43:49;;;;;;;7.35;2.28;;;;;;;6.38;100.00;99589.09;6265582;23;20064;-72
2023/03/25 17:46:24;;;;;;;9.90;2.50;;;;;;;6.33;100.00;99594.09;6263870;23;20067;-72
2023/03/25 17:48:53;;;;;;;6.55;2.35;;;;;;;6.37;100.00;99584.78;6236561;23;20020;-75
2023/03/25 17:51:20;;;;;;;7.13;2.50;;;;;;;6.41;100.00;99595.97;6243468;23;20028;-76
2023/03/25 17:53:48;;;;;;;10.40;3.28;;;;;;;6.43;100.00;99592.16;6243460;23;20043;-75
2023/03/25 17:56:18;;;;;;;10.25;3.00;;;;;;;6.46;100.00;99589.16;6244160;23;20020;-75
2023/03/25 17:58:44;;;;;;;7.60;2.60;;;;;;;6.47;100.00;99601.47;6241850;23;20095;-76
2023/03/25 18:01:12;;;;;;;10.00;2.88;;;;;;;6.32;100.00;99591.59;6244830;23;20095;-75
2023/03/25 18:03:39;;;;;;;7.25;3.22;;;;;;;6.33;100.00;99590.59;6246572;23;20026;-75
2023/03/25 18:06:06;;;;;;;9.70;3.67;;;;;;;6.33;100.00;99585.28;6247941;23;20493;-75
2023/03/25 18:08:33;;;;;;;7.95;3.78;;;;;;;6.36;100.00;99583.13;6245178;23;20044;-75
2023/03/25 18:11:00;;;;;;;9.50;3.80;;;;;;;6.30;100.00;99589.09;6248422;23;20070;-76
2023/03/25 18:13:26;;;;;;;9.52;4.03;;;;;;;6.23;100.00;99591.53;6247854;23;20342;-74
2023/03/25 18:15:53;;;;;;;7.03;3.30;;;;;;;6.11;100.00;99589.28;6249618;23;20099;-74
2023/03/25 18:18:23;;;;;;;5.50;2.75;;;;;;;6.13;100.00;99589.97;6247446;23;20028;-75
2023/03/25 18:20:52;;;;;;;6.20;3.70;;;;;;;6.04;100.00;99588.25;6250194;23;20394;-75
2023/03/25 18:23:19;;;;;;;9.52;3.60;;;;;;;6.15;100.00;99583.50;6249768;23;20034;-75
2023/03/25 18:25:46;;;;;;;9.38;2.65;;;;;;;6.02;100.00;99580.44;6250499;23;20024;-74
2023/03/25 18:28:13;;;;;;;7.00;2.95;;;;;;;5.95;100.00;99582.06;6251456;22;20085;-75
2023/03/25 18:30:49;;;;;;;6.72;2.15;;;;;;;6.15;100.00;99583.50;6251733;23;20126;-75
2023/03/25 18:33:17;;;;;;;5.82;2.13;;;;;;;6.24;100.00;99582.53;6250982;23;20020;-75
2023/03/25 18:35:44;;;;;;;5.65;2.28;;;;;;;6.14;100.00;99587.16;6253314;23;20425;-76
2023/03/25 18:38:16;;;;;;;6.57;2.15;;;;;;;6.00;100.00;99583.25;6256362;23;20054;-75
2023/03/25 18:40:43;;;;;;;6.15;2.15;;;;;;;5.82;100.00;99592.31;6248836;23;20023;-75
2023/03/25 18:43:09;;;;;;;9.80;2.58;;;;;;;5.81;100.00;99583.50;6256731;23;20500;-75
2023/03/25 18:45:37;;;;;;;6.65;2.13;;;;;;;5.83;100.00;99593.97;6262197;23;20035;-76
2023/03/25 18:48:03;;;;;;;6.32;2.17;;;;;;;5.88;100.00;99597.00;6266019;23;20040;-74
2023/03/25 18:50:40;;;;;;;7.15;2.88;;;;;;;5.89;100.00;99582.69;6268006;23;20079;-74
2023/03/25 18:53:07;;;;;;;6.05;2.30;;;;;;;5.85;100.00;99584.00;6266122;23;20427;-75
2023/03/25 18:55:36;;;;;;;5.07;1.70;;;;;;;5.70;100.00;99584.59;6267711;23;20036;-74
2023/03/25 18:58:03;;;;;;;6.47;2.30;;;;;;;5.73;100.00;99583.41;6265696;23;20024;-73
2023/03/25 19:00:38;;;;;;;6.95;2.38;;;;;;;5.61;100.00;99582.03;6265070;23;20028;-73
2023/03/25 19:03:05;;;;;;;6.28;2.50;;;;;;;5.60;100.00;99586.53;6232256;23;20033;-73
2023/03/25 19:05:32;;;;;;;7.82;2.50;;;;;;;5.80;100.00;99588.94;6255614;23;20034;-75
2023/03/25 19:07:58;;;;;;;6.45;2.40;;;;;;;5.61;100.00;99588.19;6236172;23;20071;-73
2023/03/25 19:10:28;;;;;;;6.40;2.15;;;;;;;5.64;100.00;99593.19;6263248;23;20024;-74
2023/03/25 19:12:55;;;;;;;6.40;2.20;;;;;;;5.60;100.00;99604.31;6263583;23;20043;-74
2023/03/25 19:15:26;;;;;;;7.90;2.97;;;;;;;5.56;100.00;99608.25;6261578;23;20028;-73
2023/03/25 19:17:54;;;;;;;6.33;1.70;;;;;;;5.54;100.00;99621.72;6262113;23;20031;-73
2023/03/25 19:20:24;;;;;;;6.07;1.63;;;;;;;5.59;100.00;99632.72;6263291;23;20039;-74
2023/03/25 19:22:51;;;;;;;4.00;1.48;;;;;;;5.62;100.00;99627.09;6263900;23;20020;-72
2023/03/25 19:25:18;;;;;;;5.97;1.67;;;;;;;5.48;100.00;99617.00;6258628;23;20016;-73
2023/03/25 19:27:48;;;;;;;2.55;0.95;;;;;;;5.40;100.00;99622.28;6259842;22;20074;-72
2023/03/25 19:30:18;;;;;;;4.25;1.17;;;;;;;5.34;100.00;99631.69;6262066;23;20035;-73
2023/03/25 19:32:46;;;;;;;3.60;0.98;;;;;;;5.18;100.00;99616.44;6235857;23;20016;-73
2023/03/25 19:35:14;;;;;;;4.72;1.05;;;;;;;5.21;100.00;99618.81;6264518;23;20035;-73
2023/03/25 19:37:49;;;;;;;2.95;1.20;;;;;;;5.30;100.00;99606.41;6260634;23;20023;-73
2023/03/25 19:40:19;;;;;;;4.15;1.48;;;;;;;5.34;100.00;99585.66;6261842;23;20031;-73
2023/03/25 19:42:47;;;;;;;2.20;1.25;;;;;;;5.26;100.00;99589.91;6262674;23;20020;-73
2023/03/25 19:45:15;;;;;;;2.90;1.23;;;;;;;5.23;100.00;99598.19;6250944;23;20044;-73
2023/03/25 19:47:42;;;;;;;4.88;1.63;;;;;;;5.21;100.00;99594.00;6262665;23;20020;-74
2023/03/25 19:50:30;;;;;;;4.13;1.52;;;;;;;5.18;100.00;99589.00;6260297;23;20035;-74
2023/03/25 19:52:59;;;;;;;3.95;1.38;;;;;;;5.10;100.00;99583.63;6259426;23;20022;-74
2023/03/25 19:55:27;;;;;;;5.07;1.55;;;;;;;5.11;100.00;99588.78;6252135;23;20051;-73
2023/03/25 19:57:53;;;;;;;2.85;1.40;;;;;;;5.29;100.00;99581.63;6258455;23;20020;-75
2023/03/25 20:00:26;;;;;;;4.82;1.67;;;;;;;5.08;100.00;99582.94;6259623;23;20031;-72
2023/03/25 20:02:57;;;;;;;1.95;1.27;;;;;;;5.05;100.00;99579.59;6258737;23;20035;-72
2023/03/25 20:05:24;;;;;;;;;;;;;;;4.93;100.00;99587.94;6258960;23;20042;-73
2023/03/25 20:07:50;;;;;;;2.75;1.00;;;;;;;5.02;100.00;99581.72;6258812;23;19942;-72
2023/03/25 20:10:20;;;;;;;3.00;0.98;;;;;;;4.96;100.00;99587.66;6258573;23;20027;-72
2023/03/25 20:12:47;;;;;;;4.38;1.10;;;;;;;4.96;100.00;99575.19;6231576;23;20024;-72
2023/03/25 20:15:16;;;;;;;4.00;1.10;;;;;;;4.95;100.00;99578.00;6258982;23;20087;-73
2023/03/25 20:17:43;;;;;;;2.55;0.90;;;;;;;4.98;100.00;99575.06;6258591;23;20026;-72
2023/03/25 20:20:12;;;;;;;4.63;1.23;;;;;;;4.92;100.00;99557.88;6219857;23;20043;-72
2023/03/25 20:22:39;;;;;;;3.42;1.52;;;;;;;4.89;100.00;99570.63;6258486;23;20031;-72
2023/03/25 20:25:07;;;;;;;6.43;2.10;;;;;;;4.83;100.00;99564.09;6258307;23;20026;-72